sensor_id;sensor_type;location;lat;lon;timestamp;temperature;humidity
10443;DHT22;5269;51.146;16.986;2022-12-20T00:01:07;1.30;99.90
10443;DHT22;5269;51.146;16.986;2022-12-20T00:03:35;1.30;99.90
10443;DHT22;5269;51.146;16.986;2022-12-20T00:06:03;1.30;99.90
10443;DHT22;5269;51.146;16.986;2022-12-20T00:08:31;1.30;99.90
10443;DHT22;5269;51.146;16.986;2022-12-20T00:11:00;1.30;99.90
10443;DHT22;5269;51.146;16.986;2022-12-20T00:13:30;1.20;99.90
10443;DHT22;5269;51.146;16.986;2022-12-20T00:16:08;1.10;99.90
10443;DHT22;5269;51.146;16.986;2022-12-20T00:18:38;1.20;99.90
10443;DHT22;5269;51.146;16.986;2022-12-20T00:21:08;1.10;99.90
10443;DHT22;5269;51.146;16.986;2022-12-20T00:23:36;1.20;99.90
10443;DHT22;5269;51.146;16.986;2022-12-20T00:26:04;1.20;99.90
10443;DHT22;5269;51.146;16.986;2022-12-20T00:28:32;1.20;99.90
10443;DHT22;5269;51.146;16.986;2022-12-20T00:30:59;1.20;99.90
10443;DHT22;5269;51.146;16.986;2022-12-20T00:33:26;1.30;99.90
10443;DHT22;5269;51.146;16.986;2022-12-20T00:35:55;1.30;99.90
10443;DHT22;5269;51.146;16.986;2022-12-20T00:38:22;1.30;99.90
10443;DHT22;5269;51.146;16.986;2022-12-20T00:40:59;1.30;99.90
10443;DHT22;5269;51.146;16.986;2022-12-20T00:43:26;1.20;99.90
10443;DHT22;5269;51.146;16.986;2022-12-20T00:45:53;1.30;99.90
10443;DHT22;5269;51.146;16.986;2022-12-20T00:48:21;1.30;99.90
10443;DHT22;5269;51.146;16.986;2022-12-20T00:50:49;1.30;99.90
10443;DHT22;5269;51.146;16.986;2022-12-20T00:53:17;1.30;99.90
10443;DHT22;5269;51.146;16.986;2022-12-20T00:55:45;1.30;99.90
10443;DHT22;5269;51.146;16.986;2022-12-20T00:58:13;1.30;99.90
10443;DHT22;5269;51.146;16.986;2022-12-20T01:00:40;1.20;99.90
10443;DHT22;5269;51.146;16.986;2022-12-20T01:03:07;1.40;99.90
10443;DHT22;5269;51.146;16.986;2022-12-20T01:05:34;1.30;99.90
10443;DHT22;5269;51.146;16.986;2022-12-20T01:08:02;1.30;99.90
10443;DHT22;5269;51.146;16.986;2022-12-20T01:10:30;1.30;99.90
10443;DHT22;5269;51.146;16.986;2022-12-20T01:12:58;1.40;99.90
10443;DHT22;5269;51.146;16.986;2022-12-20T01:15:25;1.40;99.90
10443;DHT22;5269;51.146;16.986;2022-12-20T01:17:52;1.40;99.90
10443;DHT22;5269;51.146;16.986;2022-12-20T01:20:19;1.30;99.90
10443;DHT22;5269;51.146;16.986;2022-12-20T01:22:46;1.30;99.90
10443;DHT22;5269;51.146;16.986;2022-12-20T01:25:13;1.20;99.90
10443;DHT22;5269;51.146;16.986;2022-12-20T01:27:41;1.20;99.90
10443;DHT22;5269;51.146;16.986;2022-12-20T01:30:09;1.30;99.90
10443;DHT22;5269;51.146;16.986;2022-12-20T01:32:37;1.20;99.90
10443;DHT22;5269;51.146;16.986;2022-12-20T01:35:04;1.20;99.90
10443;DHT22;5269;51.146;16.986;2022-12-20T01:37:31;1.20;99.90
10443;DHT22;5269;51.146;16.986;2022-12-20T01:39:58;1.30;99.90
10443;DHT22;5269;51.146;16.986;2022-12-20T01:42:25;1.30;99.90
10443;DHT22;5269;51.146;16.986;2022-12-20T01:44:57;1.20;99.90
10443;DHT22;5269;51.146;16.986;2022-12-20T01:47:25;1.20;99.90
10443;DHT22;5269;51.146;16.986;2022-12-20T01:49:54;1.20;99.90
10443;DHT22;5269;51.146;16.986;2022-12-20T01:52:27;1.10;99.90
10443;DHT22;5269;51.146;16.986;2022-12-20T01:54:59;1.30;99.90
10443;DHT22;5269;51.146;16.986;2022-12-20T01:57:41;1.20;99.90
10443;DHT22;5269;51.146;16.986;2022-12-20T02:00:11;1.40;99.90
10443;DHT22;5269;51.146;16.986;2022-12-20T02:02:38;1.40;99.90
10443;DHT22;5269;51.146;16.986;2022-12-20T02:05:06;1.30;99.90
10443;DHT22;5269;51.146;16.986;2022-12-20T02:07:35;1.40;99.90
10443;DHT22;5269;51.146;16.986;2022-12-20T02:10:03;1.40;99.90
10443;DHT22;5269;51.146;16.986;2022-12-20T02:12:37;1.40;99.90
10443;DHT22;5269;51.146;16.986;2022-12-20T02:15:27;1.40;99.90
10443;DHT22;5269;51.146;16.986;2022-12-20T02:18:07;1.40;99.90
10443;DHT22;5269;51.146;16.986;2022-12-20T02:20:55;1.40;99.90
10443;DHT22;5269;51.146;16.986;2022-12-20T02:23:40;1.40;99.90
10443;DHT22;5269;51.146;16.986;2022-12-20T02:29:32;1.40;99.90
10443;DHT22;5269;51.146;16.986;2022-12-20T02:32:07;1.40;99.90
10443;DHT22;5269;51.146;16.986;2022-12-20T02:34:36;1.50;99.90
10443;DHT22;5269;51.146;16.986;2022-12-20T02:37:04;1.60;99.90
10443;DHT22;5269;51.146;16.986;2022-12-20T02:39:31;1.50;99.90
10443;DHT22;5269;51.146;16.986;2022-12-20T02:42:03;1.60;99.90
10443;DHT22;5269;51.146;16.986;2022-12-20T02:44:34;1.50;99.90
10443;DHT22;5269;51.146;16.986;2022-12-20T02:47:24;1.50;99.90
10443;DHT22;5269;51.146;16.986;2022-12-20T02:49:53;1.50;99.90
10443;DHT22;5269;51.146;16.986;2022-12-20T02:52:23;1.50;99.90
10443;DHT22;5269;51.146;16.986;2022-12-20T02:54:52;1.50;99.90
10443;DHT22;5269;51.146;16.986;2022-12-20T02:57:24;1.60;99.90
10443;DHT22;5269;51.146;16.986;2022-12-20T02:59:57;1.60;99.90
10443;DHT22;5269;51.146;16.986;2022-12-20T03:02:29;1.60;99.90
10443;DHT22;5269;51.146;16.986;2022-12-20T03:05:19;1.70;99.90
10443;DHT22;5269;51.146;16.986;2022-12-20T03:07:47;1.70;99.90
10443;DHT22;5269;51.146;16.986;2022-12-20T03:10:14;1.70;99.90
10443;DHT22;5269;51.146;16.986;2022-12-20T03:12:41;1.70;99.90
10443;DHT22;5269;51.146;16.986;2022-12-20T03:15:10;1.80;99.90
10443;DHT22;5269;51.146;16.986;2022-12-20T03:17:38;1.70;99.90
10443;DHT22;5269;51.146;16.986;2022-12-20T03:20:07;1.80;99.90
10443;DHT22;5269;51.146;16.986;2022-12-20T03:22:36;1.70;99.90
10443;DHT22;5269;51.146;16.986;2022-12-20T03:25:04;1.80;99.90
10443;DHT22;5269;51.146;16.986;2022-12-20T03:27:31;1.80;99.90
10443;DHT22;5269;51.146;16.986;2022-12-20T03:29:58;1.80;99.90
10443;DHT22;5269;51.146;16.986;2022-12-20T03:32:28;1.80;99.90
10443;DHT22;5269;51.146;16.986;2022-12-20T03:34:56;1.70;99.90
10443;DHT22;5269;51.146;16.986;2022-12-20T03:37:24;1.70;99.90
10443;DHT22;5269;51.146;16.986;2022-12-20T03:39:50;1.80;99.90
10443;DHT22;5269;51.146;16.986;2022-12-20T03:42:17;1.80;99.90
10443;DHT22;5269;51.146;16.986;2022-12-20T03:44:44;1.70;99.90
10443;DHT22;5269;51.146;16.986;2022-12-20T03:47:11;1.70;99.90
10443;DHT22;5269;51.146;16.986;2022-12-20T03:49:38;1.70;99.90
10443;DHT22;5269;51.146;16.986;2022-12-20T03:52:08;1.60;99.90
10443;DHT22;5269;51.146;16.986;2022-12-20T03:54:35;1.70;99.90
10443;DHT22;5269;51.146;16.986;2022-12-20T03:57:02;1.60;99.90
10443;DHT22;5269;51.146;16.986;2022-12-20T03:59:29;1.60;99.90
10443;DHT22;5269;51.146;16.986;2022-12-20T04:01:56;1.70;99.90
10443;DHT22;5269;51.146;16.986;2022-12-20T04:04:23;1.60;99.90
10443;DHT22;5269;51.146;16.986;2022-12-20T04:06:50;1.70;99.90
10443;DHT22;5269;51.146;16.986;2022-12-20T04:09:18;1.80;99.90
10443;DHT22;5269;51.146;16.986;2022-12-20T04:11:45;1.80;99.90
10443;DHT22;5269;51.146;16.986;2022-12-20T04:14:12;1.80;99.90
10443;DHT22;5269;51.146;16.986;2022-12-20T04:16:39;1.80;99.90
10443;DHT22;5269;51.146;16.986;2022-12-20T04:19:06;1.80;99.90
10443;DHT22;5269;51.146;16.986;2022-12-20T04:21:34;1.80;99.90
10443;DHT22;5269;51.146;16.986;2022-12-20T04:24:02;1.90;99.90
10443;DHT22;5269;51.146;16.986;2022-12-20T04:26:30;2.00;99.90
10443;DHT22;5269;51.146;16.986;2022-12-20T04:28:57;1.90;99.90
10443;DHT22;5269;51.146;16.986;2022-12-20T04:31:24;1.80;99.90
10443;DHT22;5269;51.146;16.986;2022-12-20T04:33:51;1.80;99.90
10443;DHT22;5269;51.146;16.986;2022-12-20T04:36:18;1.80;99.90
10443;DHT22;5269;51.146;16.986;2022-12-20T04:38:45;1.90;99.90
10443;DHT22;5269;51.146;16.986;2022-12-20T04:41:12;1.90;99.90
10443;DHT22;5269;51.146;16.986;2022-12-20T04:43:48;2.00;99.90
10443;DHT22;5269;51.146;16.986;2022-12-20T04:46:15;2.00;99.90
10443;DHT22;5269;51.146;16.986;2022-12-20T04:48:42;2.00;99.90
10443;DHT22;5269;51.146;16.986;2022-12-20T04:51:09;2.00;99.90
10443;DHT22;5269;51.146;16.986;2022-12-20T04:53:36;2.00;99.90
10443;DHT22;5269;51.146;16.986;2022-12-20T04:56:18;1.90;99.90
10443;DHT22;5269;51.146;16.986;2022-12-20T04:58:46;1.90;99.90
10443;DHT22;5269;51.146;16.986;2022-12-20T05:01:15;1.90;99.90
10443;DHT22;5269;51.146;16.986;2022-12-20T05:03:42;1.80;99.90
10443;DHT22;5269;51.146;16.986;2022-12-20T05:06:11;1.70;99.90
10443;DHT22;5269;51.146;16.986;2022-12-20T05:08:38;1.80;99.90
10443;DHT22;5269;51.146;16.986;2022-12-20T05:11:05;1.70;99.90
10443;DHT22;5269;51.146;16.986;2022-12-20T05:13:32;1.70;99.90
10443;DHT22;5269;51.146;16.986;2022-12-20T05:16:00;1.60;99.90
10443;DHT22;5269;51.146;16.986;2022-12-20T05:18:28;1.60;99.90
10443;DHT22;5269;51.146;16.986;2022-12-20T05:20:56;1.60;99.90
10443;DHT22;5269;51.146;16.986;2022-12-20T05:23:52;1.50;99.90
10443;DHT22;5269;51.146;16.986;2022-12-20T05:26:37;1.60;99.90
10443;DHT22;5269;51.146;16.986;2022-12-20T05:29:05;1.60;99.90
10443;DHT22;5269;51.146;16.986;2022-12-20T05:31:32;1.50;99.90
10443;DHT22;5269;51.146;16.986;2022-12-20T05:34:01;1.40;99.90
10443;DHT22;5269;51.146;16.986;2022-12-20T05:36:27;1.50;99.90
10443;DHT22;5269;51.146;16.986;2022-12-20T05:38:54;1.50;99.90
10443;DHT22;5269;51.146;16.986;2022-12-20T05:41:21;1.50;99.90
10443;DHT22;5269;51.146;16.986;2022-12-20T05:43:48;1.60;99.90
10443;DHT22;5269;51.146;16.986;2022-12-20T05:46:15;1.60;99.90
10443;DHT22;5269;51.146;16.986;2022-12-20T05:48:42;1.60;99.90
10443;DHT22;5269;51.146;16.986;2022-12-20T05:51:12;1.70;99.90
10443;DHT22;5269;51.146;16.986;2022-12-20T05:53:39;1.80;99.90
10443;DHT22;5269;51.146;16.986;2022-12-20T05:56:06;1.90;99.90
10443;DHT22;5269;51.146;16.986;2022-12-20T05:58:45;1.90;99.90
10443;DHT22;5269;51.146;16.986;2022-12-20T06:01:17;1.90;99.90
10443;DHT22;5269;51.146;16.986;2022-12-20T06:03:51;1.90;99.90
10443;DHT22;5269;51.146;16.986;2022-12-20T06:06:46;2.00;99.90
10443;DHT22;5269;51.146;16.986;2022-12-20T06:09:36;2.00;99.90
10443;DHT22;5269;51.146;16.986;2022-12-20T06:12:06;2.10;99.90
10443;DHT22;5269;51.146;16.986;2022-12-20T06:14:34;2.10;99.90
10443;DHT22;5269;51.146;16.986;2022-12-20T06:17:07;2.30;99.90
10443;DHT22;5269;51.146;16.986;2022-12-20T06:19:34;2.30;99.90
10443;DHT22;5269;51.146;16.986;2022-12-20T06:22:02;2.30;99.90
10443;DHT22;5269;51.146;16.986;2022-12-20T06:24:29;2.40;99.90
10443;DHT22;5269;51.146;16.986;2022-12-20T06:26:56;2.30;99.90
10443;DHT22;5269;51.146;16.986;2022-12-20T06:29:22;2.30;99.90
10443;DHT22;5269;51.146;16.986;2022-12-20T06:31:50;2.20;99.90
10443;DHT22;5269;51.146;16.986;2022-12-20T06:34:17;2.10;99.90
10443;DHT22;5269;51.146;16.986;2022-12-20T06:36:44;2.20;99.90
10443;DHT22;5269;51.146;16.986;2022-12-20T06:39:15;2.20;99.90
10443;DHT22;5269;51.146;16.986;2022-12-20T06:41:41;2.10;99.90
10443;DHT22;5269;51.146;16.986;2022-12-20T06:44:09;2.10;99.90
10443;DHT22;5269;51.146;16.986;2022-12-20T06:46:35;2.20;99.90
10443;DHT22;5269;51.146;16.986;2022-12-20T06:49:02;2.40;99.90
10443;DHT22;5269;51.146;16.986;2022-12-20T06:51:29;2.30;99.90
10443;DHT22;5269;51.146;16.986;2022-12-20T06:53:56;2.30;99.90
10443;DHT22;5269;51.146;16.986;2022-12-20T06:56:24;2.20;99.90
10443;DHT22;5269;51.146;16.986;2022-12-20T06:58:56;2.10;99.90
10443;DHT22;5269;51.146;16.986;2022-12-20T07:01:29;2.10;99.90
10443;DHT22;5269;51.146;16.986;2022-12-20T07:10:42;2.20;99.90
10443;DHT22;5269;51.146;16.986;2022-12-20T07:13:11;2.40;99.90
10443;DHT22;5269;51.146;16.986;2022-12-20T07:15:38;2.40;99.90
10443;DHT22;5269;51.146;16.986;2022-12-20T07:18:05;2.40;99.90
10443;DHT22;5269;51.146;16.986;2022-12-20T07:20:32;2.50;99.90
10443;DHT22;5269;51.146;16.986;2022-12-20T07:22:59;2.60;99.90
10443;DHT22;5269;51.146;16.986;2022-12-20T07:25:26;2.50;99.90
10443;DHT22;5269;51.146;16.986;2022-12-20T07:27:53;2.50;99.90
10443;DHT22;5269;51.146;16.986;2022-12-20T07:30:21;2.50;99.90
10443;DHT22;5269;51.146;16.986;2022-12-20T07:32:52;2.60;99.90
10443;DHT22;5269;51.146;16.986;2022-12-20T07:35:21;2.50;99.90
10443;DHT22;5269;51.146;16.986;2022-12-20T07:37:48;2.40;99.90
10443;DHT22;5269;51.146;16.986;2022-12-20T07:40:15;2.40;99.90
10443;DHT22;5269;51.146;16.986;2022-12-20T07:42:45;2.30;99.90
10443;DHT22;5269;51.146;16.986;2022-12-20T07:45:23;2.40;99.90
10443;DHT22;5269;51.146;16.986;2022-12-20T07:47:50;2.50;99.90
10443;DHT22;5269;51.146;16.986;2022-12-20T07:50:17;2.50;99.90
10443;DHT22;5269;51.146;16.986;2022-12-20T07:52:46;2.70;99.90
10443;DHT22;5269;51.146;16.986;2022-12-20T07:55:14;2.70;99.90
10443;DHT22;5269;51.146;16.986;2022-12-20T07:57:44;2.70;99.90
10443;DHT22;5269;51.146;16.986;2022-12-20T08:00:12;2.70;99.90
10443;DHT22;5269;51.146;16.986;2022-12-20T08:02:45;2.70;99.90
10443;DHT22;5269;51.146;16.986;2022-12-20T08:05:14;2.80;99.90
10443;DHT22;5269;51.146;16.986;2022-12-20T08:07:43;2.60;99.90
10443;DHT22;5269;51.146;16.986;2022-12-20T08:10:13;2.60;99.90
10443;DHT22;5269;51.146;16.986;2022-12-20T08:12:44;2.70;99.90
10443;DHT22;5269;51.146;16.986;2022-12-20T08:15:12;2.60;99.90
10443;DHT22;5269;51.146;16.986;2022-12-20T08:17:39;2.70;99.90
10443;DHT22;5269;51.146;16.986;2022-12-20T08:20:08;2.60;99.90
10443;DHT22;5269;51.146;16.986;2022-12-20T08:22:35;2.60;99.90
10443;DHT22;5269;51.146;16.986;2022-12-20T08:25:02;2.60;99.90
10443;DHT22;5269;51.146;16.986;2022-12-20T08:27:29;2.70;99.90
10443;DHT22;5269;51.146;16.986;2022-12-20T08:29:56;2.70;99.90
10443;DHT22;5269;51.146;16.986;2022-12-20T08:32:22;2.70;99.90
10443;DHT22;5269;51.146;16.986;2022-12-20T08:34:50;2.70;99.90
10443;DHT22;5269;51.146;16.986;2022-12-20T08:37:19;2.80;99.90
10443;DHT22;5269;51.146;16.986;2022-12-20T08:39:45;2.80;99.90
10443;DHT22;5269;51.146;16.986;2022-12-20T08:42:12;2.80;99.90
10443;DHT22;5269;51.146;16.986;2022-12-20T08:44:39;2.90;99.90
10443;DHT22;5269;51.146;16.986;2022-12-20T08:47:06;2.90;99.90
10443;DHT22;5269;51.146;16.986;2022-12-20T08:49:33;3.00;99.90
10443;DHT22;5269;51.146;16.986;2022-12-20T08:52:00;2.90;99.90
10443;DHT22;5269;51.146;16.986;2022-12-20T08:54:29;2.90;99.90
10443;DHT22;5269;51.146;16.986;2022-12-20T08:56:55;2.90;99.90
10443;DHT22;5269;51.146;16.986;2022-12-20T08:59:22;2.90;99.90
10443;DHT22;5269;51.146;16.986;2022-12-20T09:01:53;2.90;99.90
10443;DHT22;5269;51.146;16.986;2022-12-20T09:04:20;3.00;99.90
10443;DHT22;5269;51.146;16.986;2022-12-20T09:06:47;3.00;99.90
10443;DHT22;5269;51.146;16.986;2022-12-20T09:09:14;3.00;99.90
10443;DHT22;5269;51.146;16.986;2022-12-20T09:11:42;3.20;99.90
10443;DHT22;5269;51.146;16.986;2022-12-20T09:14:09;3.30;99.90
10443;DHT22;5269;51.146;16.986;2022-12-20T09:16:36;3.40;99.90
10443;DHT22;5269;51.146;16.986;2022-12-20T09:19:03;3.50;99.90
10443;DHT22;5269;51.146;16.986;2022-12-20T09:21:31;3.60;87.70
10443;DHT22;5269;51.146;16.986;2022-12-20T09:23:58;3.60;66.20
10443;DHT22;5269;51.146;16.986;2022-12-20T09:26:25;3.70;14.30
10443;DHT22;5269;51.146;16.986;2022-12-20T09:28:53;3.60;1.00
10443;DHT22;5269;51.146;16.986;2022-12-20T09:31:22;3.50;1.00
10443;DHT22;5269;51.146;16.986;2022-12-20T09:33:51;3.50;99.90
10443;DHT22;5269;51.146;16.986;2022-12-20T09:36:21;3.40;1.00
10443;DHT22;5269;51.146;16.986;2022-12-20T09:38:48;3.30;78.30
10443;DHT22;5269;51.146;16.986;2022-12-20T09:41:22;3.30;1.00
10443;DHT22;5269;51.146;16.986;2022-12-20T09:43:50;3.30;1.00
10443;DHT22;5269;51.146;16.986;2022-12-20T09:46:19;3.40;99.90
10443;DHT22;5269;51.146;16.986;2022-12-20T09:48:46;3.30;1.00
10443;DHT22;5269;51.146;16.986;2022-12-20T09:51:28;3.30;1.00
10443;DHT22;5269;51.146;16.986;2022-12-20T09:54:06;3.40;31.40
10443;DHT22;5269;51.146;16.986;2022-12-20T09:56:42;3.50;96.60
10443;DHT22;5269;51.146;16.986;2022-12-20T09:59:12;3.70;1.00
10443;DHT22;5269;51.146;16.986;2022-12-20T10:01:43;3.80;95.90
10443;DHT22;5269;51.146;16.986;2022-12-20T10:04:21;3.90;29.30
10443;DHT22;5269;51.146;16.986;2022-12-20T11:52:32;5.00;26.20
10443;DHT22;5269;51.146;16.986;2022-12-20T11:55:06;4.90;99.90
10443;DHT22;5269;51.146;16.986;2022-12-20T11:57:44;5.10;99.90
10443;DHT22;5269;51.146;16.986;2022-12-20T12:00:13;4.90;45.50
10443;DHT22;5269;51.146;16.986;2022-12-20T12:02:44;4.90;99.90
10443;DHT22;5269;51.146;16.986;2022-12-20T12:05:19;5.00;99.90
10443;DHT22;5269;51.146;16.986;2022-12-20T12:07:55;5.00;99.90
10443;DHT22;5269;51.146;16.986;2022-12-20T12:10:25;4.90;99.90
10443;DHT22;5269;51.146;16.986;2022-12-20T12:12:59;4.80;1.00
10443;DHT22;5269;51.146;16.986;2022-12-20T12:15:35;4.70;1.00
10443;DHT22;5269;51.146;16.986;2022-12-20T12:18:15;4.70;1.00
10443;DHT22;5269;51.146;16.986;2022-12-20T12:20:51;4.70;1.00
10443;DHT22;5269;51.146;16.986;2022-12-20T12:23:46;4.70;1.00
10443;DHT22;5269;51.146;16.986;2022-12-20T12:26:21;4.60;1.00
10443;DHT22;5269;51.146;16.986;2022-12-20T12:28:53;4.60;1.00
10443;DHT22;5269;51.146;16.986;2022-12-20T12:31:26;4.50;1.00
10443;DHT22;5269;51.146;16.986;2022-12-20T12:34:10;4.60;99.90
10443;DHT22;5269;51.146;16.986;2022-12-20T12:37:07;4.50;1.00
10443;DHT22;5269;51.146;16.986;2022-12-20T12:45:47;4.60;99.90
10443;DHT22;5269;51.146;16.986;2022-12-20T12:48:18;4.70;1.00
10443;DHT22;5269;51.146;16.986;2022-12-20T12:50:48;4.80;2.40
10443;DHT22;5269;51.146;16.986;2022-12-20T12:53:18;4.80;1.00
10443;DHT22;5269;51.146;16.986;2022-12-20T12:55:50;4.90;1.00
10443;DHT22;5269;51.146;16.986;2022-12-20T12:58:35;5.00;1.00
10443;DHT22;5269;51.146;16.986;2022-12-20T13:01:04;5.10;1.00
10443;DHT22;5269;51.146;16.986;2022-12-20T13:03:45;5.00;1.00
10443;DHT22;5269;51.146;16.986;2022-12-20T13:07:23;4.80;1.00
10443;DHT22;5269;51.146;16.986;2022-12-20T13:10:53;4.60;1.00
10443;DHT22;5269;51.146;16.986;2022-12-20T13:13:18;4.60;99.90
10443;DHT22;5269;51.146;16.986;2022-12-20T13:16:08;4.90;1.00
10443;DHT22;5269;51.146;16.986;2022-12-20T13:21:43;4.80;1.00
10443;DHT22;5269;51.146;16.986;2022-12-20T13:24:44;4.90;1.00
10443;DHT22;5269;51.146;16.986;2022-12-20T13:27:26;4.90;34.20
10443;DHT22;5269;51.146;16.986;2022-12-20T13:30:00;4.80;1.00
10443;DHT22;5269;51.146;16.986;2022-12-20T13:32:54;4.60;99.90
10443;DHT22;5269;51.146;16.986;2022-12-20T13:35:32;4.50;1.00
10443;DHT22;5269;51.146;16.986;2022-12-20T13:41:38;4.20;1.00
10443;DHT22;5269;51.146;16.986;2022-12-20T13:44:20;4.20;1.00
10443;DHT22;5269;51.146;16.986;2022-12-20T13:47:01;4.10;99.90
10443;DHT22;5269;51.146;16.986;2022-12-20T13:49:35;4.10;1.00
10443;DHT22;5269;51.146;16.986;2022-12-20T13:52:12;4.00;1.00
10443;DHT22;5269;51.146;16.986;2022-12-20T13:54:44;4.00;99.90
10443;DHT22;5269;51.146;16.986;2022-12-20T13:57:18;3.80;1.00
10443;DHT22;5269;51.146;16.986;2022-12-20T13:59:53;3.80;1.00
10443;DHT22;5269;51.146;16.986;2022-12-20T14:02:27;3.80;99.90
10443;DHT22;5269;51.146;16.986;2022-12-20T14:05:18;3.70;1.00
10443;DHT22;5269;51.146;16.986;2022-12-20T14:07:59;3.60;1.00
10443;DHT22;5269;51.146;16.986;2022-12-20T14:10:44;3.60;1.00
10443;DHT22;5269;51.146;16.986;2022-12-20T14:13:35;3.60;1.00
10443;DHT22;5269;51.146;16.986;2022-12-20T14:16:31;3.50;1.00
10443;DHT22;5269;51.146;16.986;2022-12-20T14:19:18;3.50;99.90
10443;DHT22;5269;51.146;16.986;2022-12-20T14:21:57;3.40;1.00
10443;DHT22;5269;51.146;16.986;2022-12-20T14:24:43;3.30;99.90
10443;DHT22;5269;51.146;16.986;2022-12-20T14:27:32;3.20;1.00
10443;DHT22;5269;51.146;16.986;2022-12-20T14:33:29;3.20;1.00
10443;DHT22;5269;51.146;16.986;2022-12-20T14:36:18;3.20;1.00
10443;DHT22;5269;51.146;16.986;2022-12-20T14:38:48;3.10;99.90
10443;DHT22;5269;51.146;16.986;2022-12-20T14:41:33;3.00;1.00
10443;DHT22;5269;51.146;16.986;2022-12-20T14:44:32;3.00;1.00
10443;DHT22;5269;51.146;16.986;2022-12-20T14:47:11;3.00;1.00
10443;DHT22;5269;51.146;16.986;2022-12-20T14:52:47;2.90;1.00
10443;DHT22;5269;51.146;16.986;2022-12-20T14:55:18;2.90;99.90
10443;DHT22;5269;51.146;16.986;2022-12-20T14:57:48;2.80;99.90
10443;DHT22;5269;51.146;16.986;2022-12-20T15:00:22;2.80;99.90
10443;DHT22;5269;51.146;16.986;2022-12-20T15:03:01;2.90;1.00
10443;DHT22;5269;51.146;16.986;2022-12-20T15:05:52;2.90;1.00
10443;DHT22;5269;51.146;16.986;2022-12-20T15:08:24;2.70;99.90
10443;DHT22;5269;51.146;16.986;2022-12-20T15:11:00;2.60;1.00
10443;DHT22;5269;51.146;16.986;2022-12-20T15:13:45;2.60;1.00
10443;DHT22;5269;51.146;16.986;2022-12-20T15:16:15;2.60;99.50
10443;DHT22;5269;51.146;16.986;2022-12-20T15:19:04;2.50;48.20
10443;DHT22;5269;51.146;16.986;2022-12-20T15:21:39;2.60;1.00
10443;DHT22;5269;51.146;16.986;2022-12-20T15:24:39;2.60;1.00
10443;DHT22;5269;51.146;16.986;2022-12-20T15:27:11;2.60;1.00
10443;DHT22;5269;51.146;16.986;2022-12-20T15:30:04;2.80;1.00
10443;DHT22;5269;51.146;16.986;2022-12-20T15:32:38;2.80;99.90
10443;DHT22;5269;51.146;16.986;2022-12-20T15:35:27;2.80;99.90
10443;DHT22;5269;51.146;16.986;2022-12-20T15:37:54;2.70;99.90
10443;DHT22;5269;51.146;16.986;2022-12-20T15:40:26;2.60;99.90
10443;DHT22;5269;51.146;16.986;2022-12-20T15:42:53;2.60;1.00
10443;DHT22;5269;51.146;16.986;2022-12-20T15:45:25;2.70;1.00
10443;DHT22;5269;51.146;16.986;2022-12-20T15:47:58;2.60;1.00
10443;DHT22;5269;51.146;16.986;2022-12-20T15:50:30;2.60;1.00
10443;DHT22;5269;51.146;16.986;2022-12-20T15:53:16;2.60;1.00
10443;DHT22;5269;51.146;16.986;2022-12-20T15:55:56;2.50;1.00
10443;DHT22;5269;51.146;16.986;2022-12-20T15:58:24;2.60;1.00
10443;DHT22;5269;51.146;16.986;2022-12-20T16:00:53;2.70;1.00
10443;DHT22;5269;51.146;16.986;2022-12-20T16:03:25;2.60;1.00
10443;DHT22;5269;51.146;16.986;2022-12-20T16:05:57;2.60;1.00
10443;DHT22;5269;51.146;16.986;2022-12-20T16:08:29;2.60;1.00
10443;DHT22;5269;51.146;16.986;2022-12-20T16:11:03;2.70;99.90
10443;DHT22;5269;51.146;16.986;2022-12-20T16:13:35;2.60;1.00
10443;DHT22;5269;51.146;16.986;2022-12-20T16:19:27;2.60;1.00
10443;DHT22;5269;51.146;16.986;2022-12-20T16:21:56;2.60;1.00
10443;DHT22;5269;51.146;16.986;2022-12-20T16:27:49;2.80;1.00
10443;DHT22;5269;51.146;16.986;2022-12-20T16:37:14;2.80;99.90
10443;DHT22;5269;51.146;16.986;2022-12-20T16:43:04;2.80;1.00
10443;DHT22;5269;51.146;16.986;2022-12-20T16:48:55;2.70;1.00
10443;DHT22;5269;51.146;16.986;2022-12-20T16:51:24;2.60;1.00
10443;DHT22;5269;51.146;16.986;2022-12-20T16:57:14;2.60;1.00
10443;DHT22;5269;51.146;16.986;2022-12-20T17:03:04;2.70;1.00
10443;DHT22;5269;51.146;16.986;2022-12-20T17:08:54;2.60;1.00
10443;DHT22;5269;51.146;16.986;2022-12-20T17:11:22;2.50;1.00
10443;DHT22;5269;51.146;16.986;2022-12-20T17:13:51;2.40;1.00
10443;DHT22;5269;51.146;16.986;2022-12-20T17:16:18;2.50;1.00
10443;DHT22;5269;51.146;16.986;2022-12-20T17:18:48;2.50;1.00
10443;DHT22;5269;51.146;16.986;2022-12-20T17:21:25;2.50;1.00
10443;DHT22;5269;51.146;16.986;2022-12-20T17:24:00;2.50;1.00
10443;DHT22;5269;51.146;16.986;2022-12-20T17:26:34;2.50;1.00
10443;DHT22;5269;51.146;16.986;2022-12-20T17:29:02;2.50;1.00
10443;DHT22;5269;51.146;16.986;2022-12-20T17:31:40;2.50;1.00
10443;DHT22;5269;51.146;16.986;2022-12-20T17:34:15;2.40;1.00
10443;DHT22;5269;51.146;16.986;2022-12-20T17:36:42;2.40;1.00
10443;DHT22;5269;51.146;16.986;2022-12-20T17:39:09;2.30;1.00
10443;DHT22;5269;51.146;16.986;2022-12-20T17:41:43;2.30;1.00
10443;DHT22;5269;51.146;16.986;2022-12-20T17:44:17;2.40;1.00
10443;DHT22;5269;51.146;16.986;2022-12-20T17:46:49;2.40;1.00
10443;DHT22;5269;51.146;16.986;2022-12-20T17:49:20;2.30;1.00
10443;DHT22;5269;51.146;16.986;2022-12-20T17:51:49;2.30;1.00
10443;DHT22;5269;51.146;16.986;2022-12-20T17:54:20;2.50;35.00
10443;DHT22;5269;51.146;16.986;2022-12-20T17:56:48;2.50;1.00
10443;DHT22;5269;51.146;16.986;2022-12-20T17:59:18;2.50;1.00
10443;DHT22;5269;51.146;16.986;2022-12-20T18:01:49;2.40;1.00
10443;DHT22;5269;51.146;16.986;2022-12-20T18:04:18;2.30;1.00
10443;DHT22;5269;51.146;16.986;2022-12-20T18:06:45;2.40;1.00
10443;DHT22;5269;51.146;16.986;2022-12-20T18:09:16;2.30;1.00
10443;DHT22;5269;51.146;16.986;2022-12-20T18:11:44;2.30;8.70
10443;DHT22;5269;51.146;16.986;2022-12-20T18:14:21;2.30;8.80
10443;DHT22;5269;51.146;16.986;2022-12-20T18:16:54;2.30;32.60
10443;DHT22;5269;51.146;16.986;2022-12-20T18:19:30;2.20;92.30
10443;DHT22;5269;51.146;16.986;2022-12-20T18:21:59;2.30;99.90
10443;DHT22;5269;51.146;16.986;2022-12-20T18:24:32;2.30;99.90
10443;DHT22;5269;51.146;16.986;2022-12-20T18:27:00;2.30;99.90
10443;DHT22;5269;51.146;16.986;2022-12-20T18:29:33;2.30;99.90
10443;DHT22;5269;51.146;16.986;2022-12-20T18:32:03;2.30;99.90
10443;DHT22;5269;51.146;16.986;2022-12-20T18:34:32;2.40;99.90
10443;DHT22;5269;51.146;16.986;2022-12-20T18:36:59;2.40;99.90
10443;DHT22;5269;51.146;16.986;2022-12-20T18:39:26;2.40;99.90
10443;DHT22;5269;51.146;16.986;2022-12-20T18:41:53;2.40;99.90
10443;DHT22;5269;51.146;16.986;2022-12-20T18:44:20;2.40;97.90
10443;DHT22;5269;51.146;16.986;2022-12-20T18:46:47;2.40;99.90
10443;DHT22;5269;51.146;16.986;2022-12-20T18:49:14;2.40;67.00
10443;DHT22;5269;51.146;16.986;2022-12-20T18:51:53;2.50;99.90
10443;DHT22;5269;51.146;16.986;2022-12-20T18:54:21;2.60;1.00
10443;DHT22;5269;51.146;16.986;2022-12-20T18:56:58;2.60;1.00
10443;DHT22;5269;51.146;16.986;2022-12-20T18:59:30;2.50;1.00
10443;DHT22;5269;51.146;16.986;2022-12-20T19:01:57;2.50;1.00
10443;DHT22;5269;51.146;16.986;2022-12-20T19:04:30;2.60;1.00